sensor_id;sensor_type;location;lat;lon;timestamp;P1;durP1;ratioP1;P2;durP2;ratioP2
73015;SDS011;61893;50.074;14.440;2022-10-16T00:01:28;5.80;;;4.30;;
73015;SDS011;61893;50.074;14.440;2022-10-16T00:03:56;7.55;;;4.28;;
73015;SDS011;61893;50.074;14.440;2022-10-16T00:06:23;6.72;;;3.95;;
73015;SDS011;61893;50.074;14.440;2022-10-16T00:08:51;6.45;;;4.30;;
73015;SDS011;61893;50.074;14.440;2022-10-16T00:11:18;7.72;;;4.28;;
73015;SDS011;61893;50.074;14.440;2022-10-16T00:13:55;5.15;;;4.00;;
73015;SDS011;61893;50.074;14.440;2022-10-16T00:16:32;7.35;;;3.95;;
73015;SDS011;61893;50.074;14.440;2022-10-16T00:18:59;7.18;;;3.85;;
73015;SDS011;61893;50.074;14.440;2022-10-16T00:21:26;5.15;;;3.78;;
73015;SDS011;61893;50.074;14.440;2022-10-16T00:23:59;6.10;;;3.58;;
73015;SDS011;61893;50.074;14.440;2022-10-16T00:26:29;8.85;;;4.15;;
73015;SDS011;61893;50.074;14.440;2022-10-16T00:28:57;5.28;;;3.85;;
73015;SDS011;61893;50.074;14.440;2022-10-16T00:31:23;5.00;;;3.85;;
73015;SDS011;61893;50.074;14.440;2022-10-16T00:34:10;5.65;;;3.67;;
73015;SDS011;61893;50.074;14.440;2022-10-16T00:36:35;6.28;;;3.88;;
73015;SDS011;61893;50.074;14.440;2022-10-16T00:39:02;6.43;;;4.35;;
73015;SDS011;61893;50.074;14.440;2022-10-16T00:41:29;5.63;;;3.53;;
73015;SDS011;61893;50.074;14.440;2022-10-16T00:43:57;7.15;;;4.20;;
73015;SDS011;61893;50.074;14.440;2022-10-16T00:46:26;5.28;;;3.78;;
73015;SDS011;61893;50.074;14.440;2022-10-16T00:49:19;5.82;;;3.70;;
73015;SDS011;61893;50.074;14.440;2022-10-16T00:51:47;6.18;;;3.90;;
73015;SDS011;61893;50.074;14.440;2022-10-16T00:54:26;5.90;;;3.97;;
73015;SDS011;61893;50.074;14.440;2022-10-16T00:56:55;4.47;;;3.40;;
73015;SDS011;61893;50.074;14.440;2022-10-16T00:59:38;6.20;;;3.83;;
73015;SDS011;61893;50.074;14.440;2022-10-16T01:02:10;4.60;;;3.72;;
73015;SDS011;61893;50.074;14.440;2022-10-16T01:04:44;7.13;;;3.75;;
73015;SDS011;61893;50.074;14.440;2022-10-16T01:17:56;4.63;;;3.35;;
73015;SDS011;61893;50.074;14.440;2022-10-16T01:20:42;7.35;;;3.50;;
73015;SDS011;61893;50.074;14.440;2022-10-16T01:31:10;6.25;;;3.42;;
73015;SDS011;61893;50.074;14.440;2022-10-16T01:33:42;5.90;;;3.78;;
73015;SDS011;61893;50.074;14.440;2022-10-16T01:36:14;4.80;;;3.42;;
73015;SDS011;61893;50.074;14.440;2022-10-16T01:38:46;7.70;;;3.80;;
73015;SDS011;61893;50.074;14.440;2022-10-16T01:41:19;6.05;;;3.67;;
73015;SDS011;61893;50.074;14.440;2022-10-16T01:44:31;7.38;;;3.65;;
73015;SDS011;61893;50.074;14.440;2022-10-16T01:49:52;5.22;;;3.60;;
73015;SDS011;61893;50.074;14.440;2022-10-16T01:52:21;6.03;;;3.75;;
73015;SDS011;61893;50.074;14.440;2022-10-16T01:54:52;5.50;;;4.00;;
73015;SDS011;61893;50.074;14.440;2022-10-16T01:57:23;6.35;;;3.63;;
73015;SDS011;61893;50.074;14.440;2022-10-16T01:59:52;4.93;;;3.95;;
73015;SDS011;61893;50.074;14.440;2022-10-16T02:02:24;4.65;;;3.40;;
73015;SDS011;61893;50.074;14.440;2022-10-16T02:04:58;5.20;;;4.15;;
73015;SDS011;61893;50.074;14.440;2022-10-16T02:07:52;6.38;;;3.75;;
73015;SDS011;61893;50.074;14.440;2022-10-16T02:10:18;5.32;;;3.95;;
73015;SDS011;61893;50.074;14.440;2022-10-16T02:12:45;6.95;;;4.05;;
73015;SDS011;61893;50.074;14.440;2022-10-16T02:15:19;4.82;;;3.38;;
73015;SDS011;61893;50.074;14.440;2022-10-16T02:17:45;6.03;;;3.70;;
73015;SDS011;61893;50.074;14.440;2022-10-16T02:20:10;5.60;;;3.67;;
73015;SDS011;61893;50.074;14.440;2022-10-16T02:22:43;8.02;;;3.90;;
73015;SDS011;61893;50.074;14.440;2022-10-16T02:25:17;7.13;;;3.83;;
73015;SDS011;61893;50.074;14.440;2022-10-16T02:32:55;6.85;;;3.85;;
73015;SDS011;61893;50.074;14.440;2022-10-16T02:35:25;5.85;;;3.97;;
73015;SDS011;61893;50.074;14.440;2022-10-16T02:37:53;5.28;;;3.80;;
73015;SDS011;61893;50.074;14.440;2022-10-16T02:40:21;5.43;;;3.67;;
73015;SDS011;61893;50.074;14.440;2022-10-16T02:42:50;5.72;;;3.83;;
73015;SDS011;61893;50.074;14.440;2022-10-16T02:45:20;7.07;;;3.38;;
73015;SDS011;61893;50.074;14.440;2022-10-16T02:47:46;5.82;;;3.67;;
73015;SDS011;61893;50.074;14.440;2022-10-16T02:50:12;7.32;;;3.45;;
73015;SDS011;61893;50.074;14.440;2022-10-16T02:52:38;7.03;;;3.63;;
73015;SDS011;61893;50.074;14.440;2022-10-16T02:55:04;4.65;;;3.35;;
73015;SDS011;61893;50.074;14.440;2022-10-16T02:57:30;6.22;;;3.25;;
73015;SDS011;61893;50.074;14.440;2022-10-16T02:59:57;4.38;;;3.42;;
73015;SDS011;61893;50.074;14.440;2022-10-16T03:02:23;4.07;;;2.95;;
73015;SDS011;61893;50.074;14.440;2022-10-16T03:04:49;5.53;;;3.40;;
73015;SDS011;61893;50.074;14.440;2022-10-16T03:07:15;3.80;;;3.00;;
73015;SDS011;61893;50.074;14.440;2022-10-16T03:09:41;6.25;;;3.28;;
73015;SDS011;61893;50.074;14.440;2022-10-16T03:12:14;5.70;;;3.42;;
73015;SDS011;61893;50.074;14.440;2022-10-16T03:14:40;4.25;;;3.08;;
73015;SDS011;61893;50.074;14.440;2022-10-16T03:17:12;5.30;;;3.20;;
73015;SDS011;61893;50.074;14.440;2022-10-16T03:19:42;4.03;;;3.08;;
73015;SDS011;61893;50.074;14.440;2022-10-16T03:22:07;6.28;;;3.40;;
73015;SDS011;61893;50.074;14.440;2022-10-16T03:24:33;5.57;;;3.35;;
73015;SDS011;61893;50.074;14.440;2022-10-16T03:26:59;4.63;;;3.38;;
73015;SDS011;61893;50.074;14.440;2022-10-16T03:29:25;5.03;;;3.20;;
73015;SDS011;61893;50.074;14.440;2022-10-16T03:31:51;7.65;;;3.38;;
73015;SDS011;61893;50.074;14.440;2022-10-16T03:34:17;5.63;;;3.17;;
73015;SDS011;61893;50.074;14.440;2022-10-16T03:36:42;5.00;;;3.60;;
73015;SDS011;61893;50.074;14.440;2022-10-16T03:39:08;4.43;;;3.50;;
73015;SDS011;61893;50.074;14.440;2022-10-16T03:41:34;4.95;;;3.42;;
73015;SDS011;61893;50.074;14.440;2022-10-16T03:44:00;7.05;;;4.03;;
73015;SDS011;61893;50.074;14.440;2022-10-16T03:46:43;8.38;;;3.30;;
73015;SDS011;61893;50.074;14.440;2022-10-16T03:49:29;9.70;;;3.33;;
73015;SDS011;61893;50.074;14.440;2022-10-16T03:51:58;4.95;;;3.75;;
73015;SDS011;61893;50.074;14.440;2022-10-16T03:54:24;4.72;;;3.42;;
73015;SDS011;61893;50.074;14.440;2022-10-16T03:56:50;5.40;;;3.42;;
73015;SDS011;61893;50.074;14.440;2022-10-16T03:59:16;5.25;;;3.83;;
73015;SDS011;61893;50.074;14.440;2022-10-16T04:02:02;6.00;;;3.35;;
73015;SDS011;61893;50.074;14.440;2022-10-16T04:04:30;4.63;;;3.53;;
73015;SDS011;61893;50.074;14.440;2022-10-16T04:06:56;4.03;;;3.40;;
73015;SDS011;61893;50.074;14.440;2022-10-16T04:09:24;6.72;;;4.28;;
73015;SDS011;61893;50.074;14.440;2022-10-16T04:11:58;8.35;;;3.97;;
73015;SDS011;61893;50.074;14.440;2022-10-16T04:14:56;5.53;;;3.60;;
73015;SDS011;61893;50.074;14.440;2022-10-16T04:17:22;6.95;;;3.53;;
73015;SDS011;61893;50.074;14.440;2022-10-16T04:19:48;6.22;;;3.15;;
73015;SDS011;61893;50.074;14.440;2022-10-16T04:22:15;5.85;;;3.65;;
73015;SDS011;61893;50.074;14.440;2022-10-16T04:24:49;4.97;;;3.78;;
73015;SDS011;61893;50.074;14.440;2022-10-16T04:27:18;4.57;;;3.45;;
73015;SDS011;61893;50.074;14.440;2022-10-16T04:29:43;5.05;;;3.40;;
73015;SDS011;61893;50.074;14.440;2022-10-16T04:32:09;4.93;;;2.80;;
73015;SDS011;61893;50.074;14.440;2022-10-16T04:34:35;4.75;;;3.17;;
73015;SDS011;61893;50.074;14.440;2022-10-16T04:37:03;4.20;;;3.10;;
73015;SDS011;61893;50.074;14.440;2022-10-16T04:39:33;6.25;;;3.30;;
73015;SDS011;61893;50.074;14.440;2022-10-16T04:42:00;4.80;;;3.25;;
73015;SDS011;61893;50.074;14.440;2022-10-16T04:44:26;3.97;;;2.88;;
73015;SDS011;61893;50.074;14.440;2022-10-16T04:46:52;7.13;;;3.67;;
73015;SDS011;61893;50.074;14.440;2022-10-16T04:49:18;5.97;;;3.40;;
73015;SDS011;61893;50.074;14.440;2022-10-16T04:51:44;4.53;;;3.15;;
73015;SDS011;61893;50.074;14.440;2022-10-16T04:54:09;4.60;;;2.75;;
73015;SDS011;61893;50.074;14.440;2022-10-16T04:56:35;6.57;;;3.30;;
73015;SDS011;61893;50.074;14.440;2022-10-16T04:59:08;7.57;;;3.55;;
73015;SDS011;61893;50.074;14.440;2022-10-16T05:01:34;5.65;;;3.25;;
73015;SDS011;61893;50.074;14.440;2022-10-16T05:04:00;3.90;;;3.10;;
73015;SDS011;61893;50.074;14.440;2022-10-16T05:06:42;7.50;;;3.20;;
73015;SDS011;61893;50.074;14.440;2022-10-16T05:09:08;4.50;;;3.13;;
73015;SDS011;61893;50.074;14.440;2022-10-16T05:11:34;6.18;;;3.65;;
73015;SDS011;61893;50.074;14.440;2022-10-16T05:14:00;3.60;;;3.03;;
73015;SDS011;61893;50.074;14.440;2022-10-16T05:16:27;5.10;;;3.03;;
73015;SDS011;61893;50.074;14.440;2022-10-16T05:18:53;5.72;;;2.92;;
73015;SDS011;61893;50.074;14.440;2022-10-16T05:21:20;4.43;;;3.17;;
73015;SDS011;61893;50.074;14.440;2022-10-16T05:23:46;8.50;;;3.28;;
73015;SDS011;61893;50.074;14.440;2022-10-16T05:26:12;5.55;;;4.38;;
73015;SDS011;61893;50.074;14.440;2022-10-16T05:28:37;4.60;;;3.33;;
73015;SDS011;61893;50.074;14.440;2022-10-16T05:31:07;6.40;;;3.50;;
73015;SDS011;61893;50.074;14.440;2022-10-16T05:33:33;6.38;;;3.47;;
73015;SDS011;61893;50.074;14.440;2022-10-16T05:36:03;4.90;;;3.58;;
73015;SDS011;61893;50.074;14.440;2022-10-16T05:38:31;6.80;;;3.10;;
73015;SDS011;61893;50.074;14.440;2022-10-16T05:40:59;7.88;;;4.57;;
73015;SDS011;61893;50.074;14.440;2022-10-16T05:43:26;8.55;;;4.53;;
73015;SDS011;61893;50.074;14.440;2022-10-16T05:45:54;3.97;;;3.20;;
73015;SDS011;61893;50.074;14.440;2022-10-16T05:48:27;5.03;;;3.03;;
73015;SDS011;61893;50.074;14.440;2022-10-16T05:50:56;3.65;;;3.20;;
73015;SDS011;61893;50.074;14.440;2022-10-16T05:53:29;5.65;;;3.80;;
73015;SDS011;61893;50.074;14.440;2022-10-16T05:55:57;4.78;;;3.20;;
73015;SDS011;61893;50.074;14.440;2022-10-16T05:58:24;8.55;;;4.00;;
73015;SDS011;61893;50.074;14.440;2022-10-16T06:00:59;7.35;;;4.93;;
73015;SDS011;61893;50.074;14.440;2022-10-16T06:03:26;4.40;;;3.35;;
73015;SDS011;61893;50.074;14.440;2022-10-16T06:05:53;3.70;;;3.10;;
73015;SDS011;61893;50.074;14.440;2022-10-16T06:08:19;3.88;;;3.22;;
73015;SDS011;61893;50.074;14.440;2022-10-16T06:10:47;6.85;;;3.70;;
73015;SDS011;61893;50.074;14.440;2022-10-16T06:13:17;7.18;;;4.53;;
73015;SDS011;61893;50.074;14.440;2022-10-16T06:15:43;8.00;;;2.97;;
73015;SDS011;61893;50.074;14.440;2022-10-16T06:18:09;6.32;;;4.13;;
73015;SDS011;61893;50.074;14.440;2022-10-16T06:20:36;4.57;;;3.00;;
73015;SDS011;61893;50.074;14.440;2022-10-16T06:23:02;10.13;;;3.38;;
73015;SDS011;61893;50.074;14.440;2022-10-16T06:25:32;4.38;;;3.17;;
73015;SDS011;61893;50.074;14.440;2022-10-16T06:27:58;5.75;;;3.03;;
73015;SDS011;61893;50.074;14.440;2022-10-16T06:30:42;5.85;;;3.15;;
73015;SDS011;61893;50.074;14.440;2022-10-16T06:33:11;4.93;;;3.30;;
73015;SDS011;61893;50.074;14.440;2022-10-16T06:35:38;3.75;;;2.83;;
73015;SDS011;61893;50.074;14.440;2022-10-16T06:38:06;3.95;;;2.78;;
73015;SDS011;61893;50.074;14.440;2022-10-16T06:40:55;5.72;;;3.20;;
73015;SDS011;61893;50.074;14.440;2022-10-16T06:43:46;4.60;;;3.13;;
73015;SDS011;61893;50.074;14.440;2022-10-16T06:46:27;3.50;;;2.78;;
73015;SDS011;61893;50.074;14.440;2022-10-16T06:49:11;7.07;;;3.35;;
73015;SDS011;61893;50.074;14.440;2022-10-16T06:51:38;3.90;;;2.72;;
73015;SDS011;61893;50.074;14.440;2022-10-16T06:54:16;7.78;;;2.72;;
73015;SDS011;61893;50.074;14.440;2022-10-16T06:56:43;5.53;;;3.13;;
73015;SDS011;61893;50.074;14.440;2022-10-16T06:59:12;4.65;;;3.15;;
73015;SDS011;61893;50.074;14.440;2022-10-16T07:01:44;3.47;;;2.83;;
73015;SDS011;61893;50.074;14.440;2022-10-16T07:04:10;5.40;;;2.40;;
73015;SDS011;61893;50.074;14.440;2022-10-16T07:06:47;7.78;;;3.33;;
73015;SDS011;61893;50.074;14.440;2022-10-16T07:09:35;3.60;;;2.80;;
73015;SDS011;61893;50.074;14.440;2022-10-16T07:12:10;5.15;;;2.80;;
73015;SDS011;61893;50.074;14.440;2022-10-16T07:14:36;2.90;;;2.60;;
73015;SDS011;61893;50.074;14.440;2022-10-16T07:17:02;4.35;;;2.72;;
73015;SDS011;61893;50.074;14.440;2022-10-16T07:19:31;3.63;;;2.58;;
73015;SDS011;61893;50.074;14.440;2022-10-16T07:21:57;3.38;;;2.80;;
73015;SDS011;61893;50.074;14.440;2022-10-16T07:24:23;2.88;;;2.50;;
73015;SDS011;61893;50.074;14.440;2022-10-16T07:26:52;3.20;;;2.65;;
73015;SDS011;61893;50.074;14.440;2022-10-16T07:29:27;4.90;;;3.00;;
73015;SDS011;61893;50.074;14.440;2022-10-16T07:31:56;6.45;;;2.70;;
73015;SDS011;61893;50.074;14.440;2022-10-16T07:34:22;4.75;;;2.60;;
73015;SDS011;61893;50.074;14.440;2022-10-16T07:36:49;9.30;;;2.83;;
73015;SDS011;61893;50.074;14.440;2022-10-16T07:39:20;3.22;;;2.70;;
73015;SDS011;61893;50.074;14.440;2022-10-16T07:41:58;4.68;;;2.65;;
73015;SDS011;61893;50.074;14.440;2022-10-16T07:44:50;5.57;;;2.47;;
73015;SDS011;61893;50.074;14.440;2022-10-16T07:47:32;4.25;;;2.63;;
73015;SDS011;61893;50.074;14.440;2022-10-16T07:50:32;4.97;;;2.67;;
73015;SDS011;61893;50.074;14.440;2022-10-16T07:52:58;3.47;;;2.58;;
73015;SDS011;61893;50.074;14.440;2022-10-16T07:55:33;3.65;;;2.78;;
73015;SDS011;61893;50.074;14.440;2022-10-16T07:58:19;5.28;;;2.67;;
73015;SDS011;61893;50.074;14.440;2022-10-16T08:00:45;5.90;;;2.70;;
73015;SDS011;61893;50.074;14.440;2022-10-16T08:03:17;3.78;;;2.78;;
73015;SDS011;61893;50.074;14.440;2022-10-16T08:05:43;6.93;;;4.07;;
73015;SDS011;61893;50.074;14.440;2022-10-16T08:08:12;9.68;;;6.13;;
73015;SDS011;61893;50.074;14.440;2022-10-16T08:10:38;3.97;;;2.60;;
73015;SDS011;61893;50.074;14.440;2022-10-16T08:13:04;5.50;;;3.03;;
73015;SDS011;61893;50.074;14.440;2022-10-16T08:15:30;5.32;;;2.80;;
73015;SDS011;61893;50.074;14.440;2022-10-16T08:17:59;8.35;;;2.88;;
73015;SDS011;61893;50.074;14.440;2022-10-16T08:20:27;5.28;;;2.72;;
73015;SDS011;61893;50.074;14.440;2022-10-16T08:22:58;4.53;;;2.80;;
73015;SDS011;61893;50.074;14.440;2022-10-16T08:25:25;3.50;;;2.70;;
73015;SDS011;61893;50.074;14.440;2022-10-16T08:27:51;3.80;;;2.67;;
73015;SDS011;61893;50.074;14.440;2022-10-16T08:30:49;4.40;;;2.65;;
73015;SDS011;61893;50.074;14.440;2022-10-16T08:33:15;6.32;;;3.08;;
73015;SDS011;61893;50.074;14.440;2022-10-16T08:35:49;3.80;;;2.63;;
73015;SDS011;61893;50.074;14.440;2022-10-16T08:38:19;6.07;;;2.80;;
73015;SDS011;61893;50.074;14.440;2022-10-16T08:40:47;6.68;;;3.00;;
73015;SDS011;61893;50.074;14.440;2022-10-16T08:47:02;3.00;;;2.50;;
73015;SDS011;61893;50.074;14.440;2022-10-16T08:49:43;5.90;;;3.00;;
73015;SDS011;61893;50.074;14.440;2022-10-16T08:52:25;3.05;;;2.75;;
73015;SDS011;61893;50.074;14.440;2022-10-16T08:55:42;7.35;;;2.97;;
73015;SDS011;61893;50.074;14.440;2022-10-16T08:58:30;5.53;;;2.88;;
73015;SDS011;61893;50.074;14.440;2022-10-16T09:00:58;6.57;;;2.90;;
73015;SDS011;61893;50.074;14.440;2022-10-16T09:03:52;5.32;;;2.60;;
73015;SDS011;61893;50.074;14.440;2022-10-16T09:07:20;3.25;;;2.75;;
73015;SDS011;61893;50.074;14.440;2022-10-16T09:10:15;4.82;;;3.15;;
73015;SDS011;61893;50.074;14.440;2022-10-16T09:13:00;3.40;;;2.60;;
73015;SDS011;61893;50.074;14.440;2022-10-16T09:16:19;5.28;;;3.17;;
73015;SDS011;61893;50.074;14.440;2022-10-16T09:19:27;3.47;;;2.63;;
73015;SDS011;61893;50.074;14.440;2022-10-16T09:22:12;3.78;;;2.50;;
73015;SDS011;61893;50.074;14.440;2022-10-16T09:25:11;6.07;;;2.80;;
73015;SDS011;61893;50.074;14.440;2022-10-16T09:27:55;4.22;;;2.63;;
73015;SDS011;61893;50.074;14.440;2022-10-16T09:30:42;8.50;;;2.97;;
73015;SDS011;61893;50.074;14.440;2022-10-16T09:33:10;3.03;;;2.42;;
73015;SDS011;61893;50.074;14.440;2022-10-16T09:36:50;5.63;;;2.80;;
73015;SDS011;61893;50.074;14.440;2022-10-16T09:40:38;4.45;;;3.15;;
73015;SDS011;61893;50.074;14.440;2022-10-16T09:46:19;7.20;;;3.58;;
73015;SDS011;61893;50.074;14.440;2022-10-16T09:48:54;6.57;;;2.40;;
73015;SDS011;61893;50.074;14.440;2022-10-16T09:51:33;3.60;;;2.70;;
73015;SDS011;61893;50.074;14.440;2022-10-16T09:59:30;4.40;;;2.78;;
73015;SDS011;61893;50.074;14.440;2022-10-16T10:02:03;4.68;;;2.45;;
73015;SDS011;61893;50.074;14.440;2022-10-16T10:05:17;3.17;;;2.10;;
73015;SDS011;61893;50.074;14.440;2022-10-16T10:08:06;4.68;;;2.45;;
73015;SDS011;61893;50.074;14.440;2022-10-16T10:11:00;2.92;;;1.92;;
73015;SDS011;61893;50.074;14.440;2022-10-16T10:14:47;3.28;;;1.98;;
73015;SDS011;61893;50.074;14.440;2022-10-16T10:17:50;2.75;;;1.83;;
73015;SDS011;61893;50.074;14.440;2022-10-16T10:21:03;3.20;;;1.88;;
73015;SDS011;61893;50.074;14.440;2022-10-16T10:23:43;3.50;;;1.85;;
73015;SDS011;61893;50.074;14.440;2022-10-16T10:27:16;6.10;;;1.80;;
73015;SDS011;61893;50.074;14.440;2022-10-16T10:30:56;4.22;;;2.00;;
73015;SDS011;61893;50.074;14.440;2022-10-16T10:40:11;3.05;;;1.70;;
73015;SDS011;61893;50.074;14.440;2022-10-16T10:53:18;2.15;;;1.63;;
73015;SDS011;61893;50.074;14.440;2022-10-16T10:55:54;3.50;;;1.85;;
73015;SDS011;61893;50.074;14.440;2022-10-16T11:01:35;3.47;;;1.77;;
73015;SDS011;61893;50.074;14.440;2022-10-16T11:06:48;7.97;;;1.58;;
73015;SDS011;61893;50.074;14.440;2022-10-16T11:09:19;5.38;;;1.73;;
73015;SDS011;61893;50.074;14.440;2022-10-16T11:11:57;5.32;;;1.77;;
73015;SDS011;61893;50.074;14.440;2022-10-16T11:17:35;4.38;;;1.55;;
73015;SDS011;61893;50.074;14.440;2022-10-16T11:20:16;13.80;;;2.00;;
73015;SDS011;61893;50.074;14.440;2022-10-16T11:22:52;2.83;;;1.70;;
73015;SDS011;61893;50.074;14.440;2022-10-16T11:28:03;2.80;;;2.10;;
73015;SDS011;61893;50.074;14.440;2022-10-16T11:30:55;8.32;;;1.92;;
73015;SDS011;61893;50.074;14.440;2022-10-16T11:36:19;3.13;;;1.50;;
73015;SDS011;61893;50.074;14.440;2022-10-16T11:39:38;11.45;;;1.70;;
73015;SDS011;61893;50.074;14.440;2022-10-16T11:42:35;24.88;;;2.20;;
73015;SDS011;61893;50.074;14.440;2022-10-16T11:45:26;2.85;;;1.42;;
73015;SDS011;61893;50.074;14.440;2022-10-16T11:54:28;6.18;;;1.50;;
73015;SDS011;61893;50.074;14.440;2022-10-16T11:57:24;14.10;;;1.42;;
73015;SDS011;61893;50.074;14.440;2022-10-16T12:00:27;9.88;;;1.63;;
73015;SDS011;61893;50.074;14.440;2022-10-16T12:08:50;4.75;;;1.30;;
73015;SDS011;61893;50.074;14.440;2022-10-16T12:11:34;4.30;;;1.35;;
73015;SDS011;61893;50.074;14.440;2022-10-16T12:14:21;3.75;;;1.60;;
73015;SDS011;61893;50.074;14.440;2022-10-16T12:17:39;2.58;;;1.63;;
73015;SDS011;61893;50.074;14.440;2022-10-16T12:20:33;3.55;;;1.42;;
73015;SDS011;61893;50.074;14.440;2022-10-16T12:23:49;7.63;;;1.33;;
73015;SDS011;61893;50.074;14.440;2022-10-16T12:26:34;3.60;;;1.77;;
73015;SDS011;61893;50.074;14.440;2022-10-16T12:29:37;7.32;;;1.83;;
73015;SDS011;61893;50.074;14.440;2022-10-16T12:32:32;2.22;;;1.35;;
73015;SDS011;61893;50.074;14.440;2022-10-16T12:35:26;3.13;;;1.90;;
73015;SDS011;61893;50.074;14.440;2022-10-16T12:41:34;6.50;;;1.50;;
73015;SDS011;61893;50.074;14.440;2022-10-16T12:44:24;4.90;;;1.38;;
73015;SDS011;61893;50.074;14.440;2022-10-16T12:46:57;3.53;;;1.60;;
73015;SDS011;61893;50.074;14.440;2022-10-16T12:52:01;2.38;;;1.30;;
73015;SDS011;61893;50.074;14.440;2022-10-16T12:54:35;9.57;;;1.80;;
73015;SDS011;61893;50.074;14.440;2022-10-16T13:11:05;26.02;;;3.35;;
73015;SDS011;61893;50.074;14.440;2022-10-16T13:13:40;7.15;;;1.60;;
73015;SDS011;61893;50.074;14.440;2022-10-16T13:28:20;2.75;;;1.17;;
73015;SDS011;61893;50.074;14.440;2022-10-16T13:30:30;10.95;;;1.92;;
73015;SDS011;61893;50.074;14.440;2022-10-16T13:33:04;6.47;;;1.58;;
73015;SDS011;61893;50.074;14.440;2022-10-16T13:35:52;5.10;;;1.40;;
73015;SDS011;61893;50.074;14.440;2022-10-16T13:38:23;3.10;;;1.50;;
73015;SDS011;61893;50.074;14.440;2022-10-16T13:41:06;3.17;;;1.10;;
73015;SDS011;61893;50.074;14.440;2022-10-16T13:43:47;2.80;;;1.15;;
73015;SDS011;61893;50.074;14.440;2022-10-16T13:46:22;4.50;;;1.80;;
73015;SDS011;61893;50.074;14.440;2022-10-16T13:49:00;4.47;;;1.38;;
73015;SDS011;61893;50.074;14.440;2022-10-16T13:51:35;3.25;;;1.13;;
73015;SDS011;61893;50.074;14.440;2022-10-16T13:54:01;3.22;;;1.50;;
73015;SDS011;61893;50.074;14.440;2022-10-16T13:56:27;5.53;;;1.50;;
73015;SDS011;61893;50.074;14.440;2022-10-16T13:59:00;9.68;;;1.70;;
73015;SDS011;61893;50.074;14.440;2022-10-16T14:01:47;6.15;;;1.50;;
73015;SDS011;61893;50.074;14.440;2022-10-16T14:04:24;3.55;;;1.48;;
73015;SDS011;61893;50.074;14.440;2022-10-16T14:07:01;7.43;;;1.70;;
73015;SDS011;61893;50.074;14.440;2022-10-16T14:09:28;6.65;;;1.48;;
73015;SDS011;61893;50.074;14.440;2022-10-16T14:12:02;10.77;;;1.85;;
73015;SDS011;61893;50.074;14.440;2022-10-16T14:14:40;5.70;;;1.60;;
73015;SDS011;61893;50.074;14.440;2022-10-16T14:17:13;7.30;;;1.63;;
73015;SDS011;61893;50.074;14.440;2022-10-16T14:20:04;6.60;;;1.73;;
73015;SDS011;61893;50.074;14.440;2022-10-16T14:40:58;3.60;;;1.85;;
73015;SDS011;61893;50.074;14.440;2022-10-16T14:44:09;8.98;;;1.95;;
73015;SDS011;61893;50.074;14.440;2022-10-16T14:46:43;6.75;;;1.85;;
73015;SDS011;61893;50.074;14.440;2022-10-16T14:49:15;11.02;;;2.33;;
73015;SDS011;61893;50.074;14.440;2022-10-16T14:52:18;5.45;;;1.92;;
73015;SDS011;61893;50.074;14.440;2022-10-16T14:54:56;5.53;;;1.80;;
73015;SDS011;61893;50.074;14.440;2022-10-16T14:58:04;6.80;;;2.20;;
73015;SDS011;61893;50.074;14.440;2022-10-16T15:01:33;4.05;;;1.92;;
73015;SDS011;61893;50.074;14.440;2022-10-16T15:08:09;4.07;;;2.03;;
73015;SDS011;61893;50.074;14.440;2022-10-16T15:11:56;5.55;;;1.80;;
73015;SDS011;61893;50.074;14.440;2022-10-16T15:19:14;6.50;;;2.20;;
73015;SDS011;61893;50.074;14.440;2022-10-16T15:22:13;4.43;;;1.80;;
73015;SDS011;61893;50.074;14.440;2022-10-16T15:25:08;5.22;;;2.10;;
73015;SDS011;61893;50.074;14.440;2022-10-16T15:28:29;5.55;;;2.30;;
73015;SDS011;61893;50.074;14.440;2022-10-16T15:31:48;4.75;;;2.00;;
73015;SDS011;61893;50.074;14.440;2022-10-16T15:34:38;5.45;;;2.20;;
73015;SDS011;61893;50.074;14.440;2022-10-16T15:37:54;3.22;;;2.10;;
73015;SDS011;61893;50.074;14.440;2022-10-16T15:41:18;3.58;;;2.40;;
73015;SDS011;61893;50.074;14.440;2022-10-16T15:47:27;3.38;;;2.13;;
73015;SDS011;61893;50.074;14.440;2022-10-16T15:51:48;4.32;;;2.15;;
73015;SDS011;61893;50.074;14.440;2022-10-16T15:55:13;4.65;;;2.55;;
73015;SDS011;61893;50.074;14.440;2022-10-16T15:59:24;5.05;;;2.42;;
73015;SDS011;61893;50.074;14.440;2022-10-16T16:03:08;4.25;;;2.05;;
73015;SDS011;61893;50.074;14.440;2022-10-16T16:06:47;5.45;;;2.60;;
73015;SDS011;61893;50.074;14.440;2022-10-16T16:10:17;6.93;;;3.05;;
73015;SDS011;61893;50.074;14.440;2022-10-16T16:12:55;6.82;;;2.75;;
73015;SDS011;61893;50.074;14.440;2022-10-16T16:15:43;3.70;;;2.25;;
73015;SDS011;61893;50.074;14.440;2022-10-16T16:18:26;5.43;;;2.97;;
73015;SDS011;61893;50.074;14.440;2022-10-16T16:20:55;8.98;;;3.40;;
73015;SDS011;61893;50.074;14.440;2022-10-16T16:23:50;4.75;;;2.50;;
73015;SDS011;61893;50.074;14.440;2022-10-16T16:26:47;6.53;;;3.00;;
73015;SDS011;61893;50.074;14.440;2022-10-16T16:34:05;5.35;;;3.15;;
73015;SDS011;61893;50.074;14.440;2022-10-16T16:40:23;6.20;;;3.33;;
73015;SDS011;61893;50.074;14.440;2022-10-16T16:42:50;4.55;;;3.30;;
73015;SDS011;61893;50.074;14.440;2022-10-16T16:45:16;9.25;;;3.58;;
73015;SDS011;61893;50.074;14.440;2022-10-16T16:47:43;5.43;;;3.55;;
73015;SDS011;61893;50.074;14.440;2022-10-16T16:50:09;5.68;;;3.35;;
73015;SDS011;61893;50.074;14.440;2022-10-16T16:52:35;5.35;;;3.45;;
73015;SDS011;61893;50.074;14.440;2022-10-16T16:55:02;6.35;;;3.50;;
73015;SDS011;61893;50.074;14.440;2022-10-16T16:57:29;7.40;;;3.50;;
73015;SDS011;61893;50.074;14.440;2022-10-16T16:59:55;5.78;;;3.45;;
73015;SDS011;61893;50.074;14.440;2022-10-16T17:02:41;8.40;;;3.10;;
73015;SDS011;61893;50.074;14.440;2022-10-16T17:05:08;8.40;;;3.60;;
73015;SDS011;61893;50.074;14.440;2022-10-16T17:07:37;6.35;;;3.85;;
73015;SDS011;61893;50.074;14.440;2022-10-16T17:10:08;4.68;;;3.35;;
73015;SDS011;61893;50.074;14.440;2022-10-16T17:12:52;5.57;;;3.00;;
73015;SDS011;61893;50.074;14.440;2022-10-16T17:15:33;9.63;;;3.67;;
73015;SDS011;61893;50.074;14.440;2022-10-16T17:18:02;9.05;;;4.03;;
73015;SDS011;61893;50.074;14.440;2022-10-16T17:21:01;7.57;;;3.85;;
73015;SDS011;61893;50.074;14.440;2022-10-16T17:23:37;11.35;;;4.00;;
73015;SDS011;61893;50.074;14.440;2022-10-16T17:26:04;10.43;;;4.68;;
73015;SDS011;61893;50.074;14.440;2022-10-16T17:28:38;11.27;;;4.32;;
73015;SDS011;61893;50.074;14.440;2022-10-16T17:31:19;14.57;;;4.88;;
73015;SDS011;61893;50.074;14.440;2022-10-16T17:34:03;11.52;;;5.38;;
73015;SDS011;61893;50.074;14.440;2022-10-16T17:36:50;11.18;;;5.70;;
73015;SDS011;61893;50.074;14.440;2022-10-16T17:39:20;13.80;;;5.57;;
73015;SDS011;61893;50.074;14.440;2022-10-16T17:41:48;10.23;;;5.45;;
73015;SDS011;61893;50.074;14.440;2022-10-16T17:46:50;10.20;;;6.50;;
73015;SDS011;61893;50.074;14.440;2022-10-16T17:49:18;10.98;;;6.22;;
73015;SDS011;61893;50.074;14.440;2022-10-16T17:52:14;11.35;;;5.35;;
73015;SDS011;61893;50.074;14.440;2022-10-16T17:54:46;12.15;;;5.03;;
73015;SDS011;61893;50.074;14.440;2022-10-16T17:57:15;9.25;;;5.57;;
73015;SDS011;61893;50.074;14.440;2022-10-16T17:59:41;8.18;;;5.40;;
73015;SDS011;61893;50.074;14.440;2022-10-16T18:02:18;6.50;;;4.45;;
73015;SDS011;61893;50.074;14.440;2022-10-16T18:05:02;12.00;;;6.78;;
73015;SDS011;61893;50.074;14.440;2022-10-16T18:07:52;18.00;;;8.43;;
73015;SDS011;61893;50.074;14.440;2022-10-16T18:10:22;17.10;;;8.68;;
73015;SDS011;61893;50.074;14.440;2022-10-16T18:12:51;13.77;;;8.15;;
73015;SDS011;61893;50.074;14.440;2022-10-16T18:15:22;17.98;;;8.45;;